Milwaukee, WI (53219)

4:08 AM CDT on August 31, 2015 (GMT -0500)
Jans Embroidery | | Change Station
CLOSE
Current Station
Personal Weather Station
Location: West Allis, WI
Elevation: 738 ft
Nearby Weather Stations
Active Advisory: Special Statement

Elev 738 ft 43.00 °N, 88.00 °W | Updated 14 seconds ago

Fog
Fog
59.2 °F
Feels Like 59.2 °F
N
0.0
Wind Variable Wind from South
Gusts 0.0 mph

Today
High -- | Low -- °F
--% Chance of Precip.
Yesterday
High -- | Low -- °F
Precip. -- in
6:15 AM 7:28 PM
Waning Gibbous, 96% visible
Pressure 30.03 in
Visibility 0.8 miles
Clouds Clear
Dew Point 56 °F
Humidity 88%
Rainfall 0.00 in
Snow Depth Not available.
UV 0 out of 12
Pollen 8.70 out of 12
Air Quality Not available.
Flu Activity Not available.
METAR KMKE 310852Z 21006KT 3/4SM BR CLR 16/15 A3003 RMK AO2 SFC VIS 2 SLP168 T01560150 53001
Pressure 30.03 in
Visibility 0.8 miles
Clouds Clear
Dew Point 56 °F
Humidity 88%
Rainfall 0.00 in
Snow Depth Not available.
UV 0 out of 12
Pollen 8.70 out of 12
Air Quality Not available.
Flu Activity Not available.
METAR KMKE 310852Z 21006KT 3/4SM BR CLR 16/15 A3003 RMK AO2 SFC VIS 2 SLP168 T01560150 53001

10-Day Weather Forecast

×

Almanac

Astronomy

Aug. 31, 2015 Rise Set
Actual Time
Civil Twilight
Nautical Twilight
Astronomical Twilight
Moon
Length of Visible Light
Length of Day
Tomorrow will be .
, % of the Moon is Illuminated

Today's Extremes

State Highs State Lows

Community

WunderPhotos

Upload Photos

1,851,227 photos uploaded!

WunderBlogs® & News

Nearby

Air Quality

  Air Quality AQ Index Pollutant
Not available.

Snow Depth

Station Depth Elevation

Earthquake Activity

City Distance Mag. Time & Date
Minimum magnitude displayed is 2.5.

Coastal Water Temperatures

Place Temperature

Stations

Nearby Weather Stations

Station Location Temp. Windchill Dew Point Humidity Wind Precip. Elev Updated Type
                   
Special Statement
Statement as of 2:39 AM CDT on August 31, 2015

... Fog early this morning will be locally dense...

Look for areas of fog... with locally dense fog reducing
visibilities to 1/4 mile or less... across southern Wisconsin for
the early morning hours. Areas close to Lake Michigan... river
valleys and low-lying rural locations will be most likely to see
the dense fog.

Drivers should reduce their speed... use low-beam headlights and
leave plenty of distance ahead of you and other vehicles.


Rem

239 am CDT Mon Aug 31 2015

... Fog early this morning will be locally dense...

Look for areas of fog... with locally dense fog reducing
visibilities to 1/4 mile or less... across southern Wisconsin for
the early morning hours. Areas close to Lake Michigan... river
valleys and low-lying rural locations will be most likely to see
the dense fog.

Drivers should reduce their speed... use low-beam headlights and
leave plenty of distance ahead of you and other vehicles.


Rem